Time;durP1;ratioP1;P1;durP2;ratioP2;P2;SDS_P1;SDS_P2;PMS_P1;PMS_P2;Temp;Humidity;BMP_temperature;BMP_pressure;BME280_temperature;BME280_humidity;BME280_pressure;Samples;Min_cycle;Max_cycle;Signal;HPM_P1;HPM_P2
2022/10/12 00:00:48;;;;;;;7.70;6.90;;;10.60;99.90;;;;;;5031881;28;20609;-71
2022/10/12 00:03:14;;;;;;;7.63;6.83;;;10.60;99.80;;;;;;5031812;28;20641;-70
2022/10/12 00:05:40;;;;;;;8.17;6.97;;;10.50;99.90;;;;;;5030498;28;20772;-70
2022/10/12 00:08:06;;;;;;;6.73;6.20;;;10.50;99.90;;;;;;5012147;28;20474;-70
2022/10/12 00:10:32;;;;;;;8.03;7.10;;;10.50;99.90;;;;;;5012047;28;20669;-70
2022/10/12 00:12:58;;;;;;;7.37;6.77;;;10.50;99.90;;;;;;5010759;28;20425;-70
2022/10/12 00:15:24;;;;;;;8.40;6.97;;;10.50;99.90;;;;;;5012944;28;20499;-70
2022/10/12 00:17:51;;;;;;;7.30;6.27;;;10.50;99.90;;;;;;5011724;28;20418;-70
2022/10/12 00:20:17;;;;;;;7.10;6.50;;;10.50;99.90;;;;;;5013155;28;20414;-69
2022/10/12 00:22:42;;;;;;;8.20;6.90;;;10.50;99.90;;;;;;5011917;28;20534;-74
2022/10/12 00:25:08;;;;;;;8.40;6.63;;;10.50;99.90;;;;;;5011993;28;20194;-70
2022/10/12 00:27:34;;;;;;;6.93;6.33;;;10.40;99.80;;;;;;5012736;28;20190;-70
2022/10/12 00:30:00;;;;;;;7.47;6.70;;;10.40;99.70;;;;;;5011772;28;20409;-70
2022/10/12 00:32:25;;;;;;;14.10;7.23;;;10.40;99.90;;;;;;5011721;28;20287;-70
2022/10/12 00:34:51;;;;;;;8.00;6.93;;;10.50;99.90;;;;;;5011751;28;20265;-70
2022/10/12 00:37:19;;;;;;;8.10;6.80;;;10.40;99.90;;;;;;5012438;28;20169;-70
2022/10/12 00:39:46;;;;;;;8.80;6.83;;;10.40;99.60;;;;;;5011918;28;20528;-73
2022/10/12 00:42:12;;;;;;;7.43;6.70;;;10.30;99.40;;;;;;5012131;28;20175;-70
2022/10/12 00:44:47;;;;;;;12.73;7.43;;;10.30;99.50;;;;;;5011556;28;20525;-70
2022/10/12 00:47:16;;;;;;;7.27;6.60;;;10.20;99.40;;;;;;5012077;28;20177;-70
2022/10/12 00:49:46;;;;;;;7.80;6.70;;;10.30;99.70;;;;;;5012392;28;20414;-70
2022/10/12 00:52:16;;;;;;;6.90;6.20;;;10.30;99.90;;;;;;5011822;28;20427;-70
2022/10/12 00:54:47;;;;;;;6.93;6.30;;;10.30;99.40;;;;;;5011722;28;20441;-70
2022/10/12 00:57:16;;;;;;;7.13;6.50;;;10.20;99.30;;;;;;5016289;28;20431;-70
2022/10/12 00:59:56;;;;;;;7.03;6.43;;;10.20;99.60;;;;;;5015765;28;20501;-70
2022/10/12 01:02:25;;;;;;;7.40;6.70;;;10.20;99.80;;;;;;5015539;28;20579;-70
2022/10/12 01:04:51;;;;;;;6.97;6.43;;;10.20;99.90;;;;;;5014761;28;20433;-71
2022/10/12 01:07:17;;;;;;;7.53;6.60;;;10.20;99.90;;;;;;5015546;28;20485;-70
2022/10/12 01:09:42;;;;;;;8.13;7.37;;;10.10;99.50;;;;;;5016216;28;20411;-70
2022/10/12 01:12:09;;;;;;;8.80;7.30;;;10.10;99.50;;;;;;5014752;28;20481;-71
2022/10/12 01:14:35;;;;;;;10.70;8.07;;;10.10;99.60;;;;;;5015816;28;20236;-70
2022/10/12 01:17:28;;;;;;;8.23;7.43;;;10.10;99.80;;;;;;5014886;28;20488;-70
2022/10/12 01:20:27;;;;;;;8.90;7.67;;;10.10;99.90;;;;;;5015256;28;20420;-71
2022/10/12 01:23:15;;;;;;;11.50;8.70;;;10.00;99.80;;;;;;5014333;28;20557;-70
2022/10/12 01:26:23;;;;;;;13.23;8.20;;;10.00;99.80;;;;;;5015874;28;20424;-70
2022/10/12 01:29:21;;;;;;;8.33;7.53;;;10.00;99.90;;;;;;5014868;28;20874;-74
2022/10/12 01:32:18;;;;;;;9.03;8.10;;;10.00;99.70;;;;;;5014661;28;20468;-76
2022/10/12 01:34:52;;;;;;;9.50;8.60;;;10.00;99.80;;;;;;5015849;28;20423;-70
2022/10/12 01:37:57;;;;;;;9.60;7.87;;;10.00;99.90;;;;;;5015936;28;20406;-70
2022/10/12 01:40:32;;;;;;;10.47;7.30;;;10.00;99.90;;;;;;5013948;28;20446;-70
2022/10/12 01:42:58;;;;;;;8.70;8.00;;;9.90;99.90;;;;;;5014049;28;20556;-70
2022/10/12 01:45:24;;;;;;;13.00;8.57;;;9.90;99.90;;;;;;5015441;28;20418;-70
2022/10/12 01:47:52;;;;;;;11.17;8.30;;;9.90;99.90;;;;;;5014438;28;20433;-75
2022/10/12 01:50:20;;;;;;;8.73;7.83;;;9.90;99.90;;;;;;5015454;28;20270;-70
2022/10/12 01:53:02;;;;;;;8.90;8.10;;;9.90;99.90;;;;;;5015178;28;20494;-71
2022/10/12 01:55:34;;;;;;;10.30;7.73;;;9.90;99.90;;;;;;5015395;28;20921;-70
2022/10/12 01:58:17;;;;;;;9.07;8.03;;;9.90;99.90;;;;;;5014542;28;20425;-70
2022/10/12 02:00:51;;;;;;;11.20;8.50;;;9.90;99.90;;;;;;5015245;28;20443;-70
2022/10/12 02:03:38;;;;;;;11.43;8.37;;;9.90;99.90;;;;;;5013042;28;21293;-71
2022/10/12 02:06:14;;;;;;;8.20;7.50;;;9.90;99.90;;;;;;5002968;28;21018;-70
2022/10/12 02:09:04;;;;;;;7.83;7.10;;;9.80;99.90;;;;;;5034308;28;20770;-70
2022/10/12 02:11:34;;;;;;;12.23;7.23;;;9.80;99.90;;;;;;5034951;28;20406;-70
2022/10/12 02:14:13;;;;;;;8.40;7.23;;;9.80;99.90;;;;;;5033951;28;20421;-70
2022/10/12 02:16:43;;;;;;;7.80;7.10;;;9.80;99.90;;;;;;5034841;28;20842;-70
2022/10/12 02:19:12;;;;;;;10.13;6.93;;;9.80;99.90;;;;;;5033968;28;20601;-70
2022/10/12 02:21:39;;;;;;;7.70;7.00;;;9.80;99.90;;;;;;5034641;28;20469;-70
2022/10/12 02:24:08;;;;;;;12.50;8.20;;;9.80;99.90;;;;;;5032913;28;20465;-72
2022/10/12 02:26:37;;;;;;;8.20;7.40;;;9.70;99.90;;;;;;5016275;28;20975;-70
2022/10/12 02:29:08;;;;;;;8.67;7.77;;;9.70;99.90;;;;;;5033676;28;20412;-70
2022/10/12 02:31:44;;;;;;;7.63;6.83;;;9.70;99.90;;;;;;5033895;28;20465;-70
2022/10/12 02:34:14;;;;;;;9.30;8.07;;;9.70;99.90;;;;;;5032778;28;20940;-71
2022/10/12 02:36:46;;;;;;;8.30;7.20;;;9.70;99.90;;;;;;5034517;28;20434;-70
2022/10/12 02:39:16;;;;;;;14.23;7.90;;;9.60;99.90;;;;;;5032889;28;20513;-70
2022/10/12 02:41:56;;;;;;;8.30;7.20;;;9.60;99.90;;;;;;5034344;28;20933;-70
2022/10/12 02:44:28;;;;;;;8.40;7.60;;;9.60;99.90;;;;;;5033720;28;20465;-70
2022/10/12 02:46:56;;;;;;;12.33;7.80;;;9.50;99.90;;;;;;5013460;28;20898;-74
2022/10/12 02:49:25;;;;;;;8.93;8.03;;;9.60;99.90;;;;;;4996958;28;20497;-70
2022/10/12 02:51:55;;;;;;;10.40;7.87;;;9.60;99.90;;;;;;5014284;28;20406;-70
2022/10/12 02:54:21;;;;;;;8.33;7.50;;;9.60;99.90;;;;;;5015154;28;20538;-70
2022/10/12 02:56:47;;;;;;;8.83;8.03;;;9.60;99.90;;;;;;5033496;28;20886;-70
2022/10/12 02:59:15;;;;;;;11.23;7.13;;;9.60;99.90;;;;;;5033168;28;20412;-70
2022/10/12 03:01:41;;;;;;;8.50;7.63;;;9.60;99.90;;;;;;5032933;28;20519;-72
2022/10/12 03:04:07;;;;;;;8.00;7.30;;;9.60;99.90;;;;;;5032637;28;20461;-72
2022/10/12 03:06:33;;;;;;;8.40;7.60;;;9.60;99.90;;;;;;5025278;28;20469;-70
2022/10/12 03:08:58;;;;;;;8.30;6.87;;;9.60;99.90;;;;;;5013186;28;20780;-70
2022/10/12 03:11:24;;;;;;;9.37;7.37;;;9.50;99.90;;;;;;5014160;28;20174;-72
2022/10/12 03:13:54;;;;;;;11.20;7.87;;;9.60;99.90;;;;;;5013896;28;20206;-72
2022/10/12 03:16:22;;;;;;;8.20;7.40;;;9.50;99.90;;;;;;5013461;28;20218;-72
2022/10/12 03:18:47;;;;;;;10.77;7.33;;;9.50;99.90;;;;;;5013120;28;20530;-72
2022/10/12 03:21:13;;;;;;;13.93;8.03;;;9.60;99.90;;;;;;5012230;28;21136;-72
2022/10/12 03:23:38;;;;;;;9.63;7.80;;;9.60;99.90;;;;;;5013721;28;20214;-72
2022/10/12 03:26:05;;;;;;;8.83;7.93;;;9.60;99.90;;;;;;5012238;28;20184;-73
2022/10/12 03:28:31;;;;;;;11.13;7.60;;;9.60;99.90;;;;;;5013354;28;20643;-72
2022/10/12 03:30:57;;;;;;;8.63;7.83;;;9.50;99.90;;;;;;5012294;28;20431;-75
2022/10/12 03:33:23;;;;;;;8.73;7.70;;;9.60;99.90;;;;;;5013509;28;20426;-73
2022/10/12 03:35:49;;;;;;;9.37;7.73;;;9.50;99.90;;;;;;4962673;28;20907;-72
2022/10/12 03:38:16;;;;;;;8.60;7.70;;;9.50;99.90;;;;;;5012395;28;20490;-72
2022/10/12 03:40:42;;;;;;;9.10;8.23;;;9.50;99.80;;;;;;5013467;28;20178;-72
2022/10/12 03:43:08;;;;;;;8.60;7.80;;;9.50;99.90;;;;;;5011813;28;20513;-72
2022/10/12 03:45:34;;;;;;;9.57;8.10;;;9.50;99.90;;;;;;5013323;28;20469;-72
2022/10/12 03:48:00;;;;;;;9.40;7.60;;;9.50;99.90;;;;;;5012247;28;20419;-72
2022/10/12 03:50:26;;;;;;;10.73;9.07;;;9.50;99.90;;;;;;5013001;28;20410;-72
2022/10/12 03:52:51;;;;;;;9.67;8.60;;;9.40;99.90;;;;;;5013315;28;20410;-72
2022/10/12 03:55:17;;;;;;;11.90;8.43;;;9.40;99.90;;;;;;5011766;28;20209;-72
2022/10/12 03:57:44;;;;;;;10.60;7.83;;;9.40;99.90;;;;;;5013270;28;20697;-72
2022/10/12 04:00:11;;;;;;;8.33;7.13;;;9.50;99.90;;;;;;5012288;28;20171;-72
2022/10/12 04:02:38;;;;;;;7.83;7.03;;;9.40;99.90;;;;;;5011458;28;20421;-72
2022/10/12 04:05:04;;;;;;;8.53;7.60;;;9.50;99.90;;;;;;5012194;28;20449;-72
2022/10/12 04:07:29;;;;;;;7.30;6.63;;;9.40;99.90;;;;;;5011447;28;20465;-74
2022/10/12 04:09:55;;;;;;;7.80;6.70;;;9.50;99.90;;;;;;5011815;28;20441;-72
2022/10/12 04:12:21;;;;;;;7.83;7.10;;;9.40;99.90;;;;;;5011051;28;20526;-72
2022/10/12 04:14:47;;;;;;;8.13;7.40;;;9.40;99.90;;;;;;5012724;28;20179;-72
2022/10/12 04:17:15;;;;;;;8.87;8.03;;;9.40;99.90;;;;;;5011494;28;20207;-72
2022/10/12 04:19:41;;;;;;;7.70;7.00;;;9.40;99.90;;;;;;5012803;28;20229;-73
2022/10/12 04:22:07;;;;;;;9.30;7.33;;;9.40;99.90;;;;;;5011167;28;20426;-72
2022/10/12 04:24:35;;;;;;;7.73;7.00;;;9.40;99.90;;;;;;5012692;28;20454;-72
2022/10/12 04:27:01;;;;;;;8.97;8.27;;;9.30;99.90;;;;;;5010966;28;20187;-74
2022/10/12 04:29:26;;;;;;;12.63;7.60;;;9.30;99.90;;;;;;5011514;28;20824;-72
2022/10/12 04:31:52;;;;;;;7.70;7.00;;;9.30;99.90;;;;;;5010339;28;20430;-72
2022/10/12 04:34:18;;;;;;;10.10;8.27;;;9.30;99.90;;;;;;5011011;28;20192;-72
2022/10/12 04:36:44;;;;;;;11.80;8.50;;;9.30;99.90;;;;;;5011821;28;20536;-72
2022/10/12 04:39:10;;;;;;;9.10;8.10;;;9.30;99.90;;;;;;5010988;28;20910;-72
2022/10/12 04:41:36;;;;;;;9.60;7.87;;;9.30;99.90;;;;;;5012085;28;20209;-73
2022/10/12 04:44:01;;;;;;;12.23;7.43;;;9.30;99.90;;;;;;5011787;28;20436;-74
2022/10/12 04:46:27;;;;;;;8.20;7.40;;;9.30;99.90;;;;;;5011855;28;20195;-72
2022/10/12 04:48:53;;;;;;;12.83;7.33;;;9.20;99.90;;;;;;5012259;28;20617;-72
2022/10/12 04:51:19;;;;;;;9.53;7.07;;;9.20;99.90;;;;;;5011634;28;20402;-72
2022/10/12 04:53:44;;;;;;;7.77;7.13;;;9.20;99.90;;;;;;5012201;28;20198;-72
2022/10/12 04:56:10;;;;;;;7.93;7.07;;;9.20;99.90;;;;;;4993161;28;20186;-72
2022/10/12 04:58:36;;;;;;;7.73;7.00;;;9.20;99.90;;;;;;4929256;28;20202;-72
2022/10/12 05:01:02;;;;;;;8.70;8.00;;;9.20;99.90;;;;;;5010141;28;20191;-74
2022/10/12 05:03:27;;;;;;;11.53;8.43;;;9.20;99.90;;;;;;5011228;28;20462;-72
2022/10/12 05:05:53;;;;;;;11.80;8.23;;;9.20;99.90;;;;;;5014609;28;20230;-72
2022/10/12 05:08:19;;;;;;;8.47;7.50;;;9.20;99.90;;;;;;5030872;28;20187;-72
2022/10/12 05:10:45;;;;;;;9.90;7.77;;;9.30;99.90;;;;;;5031400;28;20185;-72
2022/10/12 05:13:12;;;;;;;9.83;7.93;;;9.20;99.90;;;;;;5013566;28;20210;-73
2022/10/12 05:15:38;;;;;;;8.77;7.70;;;9.20;99.90;;;;;;5031044;28;20425;-73
2022/10/12 05:18:04;;;;;;;10.27;8.47;;;9.30;99.90;;;;;;5030522;28;20827;-74
2022/10/12 05:20:29;;;;;;;9.60;8.60;;;9.30;99.90;;;;;;5029745;28;20211;-72
2022/10/12 05:22:58;;;;;;;9.57;8.70;;;9.30;99.90;;;;;;5014055;28;20503;-72
2022/10/12 05:25:24;;;;;;;11.63;8.70;;;9.30;99.90;;;;;;5030123;28;20184;-73
2022/10/12 05:27:50;;;;;;;11.10;9.07;;;9.30;99.90;;;;;;5011969;28;20457;-72
2022/10/12 05:30:16;;;;;;;9.83;8.83;;;9.40;99.90;;;;;;5028611;28;20435;-72
2022/10/12 05:32:43;;;;;;;8.83;7.93;;;9.40;99.90;;;;;;5029798;28;20525;-73
2022/10/12 05:35:10;;;;;;;10.60;8.20;;;9.40;99.90;;;;;;5030894;28;20470;-72
2022/10/12 05:37:36;;;;;;;9.03;8.07;;;9.40;99.90;;;;;;5031034;28;20428;-72
2022/10/12 05:40:01;;;;;;;12.57;8.77;;;9.40;99.90;;;;;;5012986;28;20530;-74
2022/10/12 05:42:27;;;;;;;9.83;8.67;;;9.40;99.90;;;;;;5032240;28;20433;-72
2022/10/12 05:44:53;;;;;;;13.73;8.90;;;9.50;99.90;;;;;;5017377;28;20260;-73
2022/10/12 05:47:18;;;;;;;10.73;9.03;;;9.40;99.90;;;;;;5034025;28;20186;-72
2022/10/12 05:49:44;;;;;;;9.83;8.83;;;9.40;99.90;;;;;;5035518;28;20171;-72
2022/10/12 05:52:10;;;;;;;10.10;9.20;;;9.40;99.90;;;;;;5033099;28;20185;-73
2022/10/12 05:54:35;;;;;;;9.87;8.70;;;9.50;99.90;;;;;;5034036;28;20186;-72
2022/10/12 05:57:01;;;;;;;10.67;9.60;;;9.40;99.90;;;;;;5035145;28;20175;-72
2022/10/12 05:59:27;;;;;;;9.80;8.77;;;9.40;99.90;;;;;;5033258;28;20187;-72
2022/10/12 06:01:52;;;;;;;15.90;9.43;;;9.50;99.90;;;;;;5013838;28;20692;-72
2022/10/12 06:04:18;;;;;;;11.53;8.10;;;9.40;99.90;;;;;;5034245;28;20658;-72
2022/10/12 06:06:44;;;;;;;11.53;8.97;;;9.40;99.90;;;;;;5032555;28;20312;-72
2022/10/12 06:09:11;;;;;;;9.73;8.82;;;9.40;99.90;;;;;;5034138;28;20444;-71
2022/10/12 06:11:36;;;;;;;9.47;8.27;;;9.40;99.90;;;;;;5017793;28;20182;-68
2022/10/12 06:14:03;;;;;;;11.17;8.10;;;9.40;99.90;;;;;;5035095;28;20419;-68
2022/10/12 06:16:29;;;;;;;12.47;7.80;;;9.30;99.90;;;;;;5035251;28;20268;-68
2022/10/12 06:18:54;;;;;;;11.00;8.67;;;9.30;99.90;;;;;;5034974;28;20458;-68
2022/10/12 06:21:20;;;;;;;9.40;7.70;;;9.30;99.90;;;;;;5033630;28;20257;-69
2022/10/12 06:23:46;;;;;;;9.40;8.50;;;9.30;99.90;;;;;;5027518;28;20203;-68
2022/10/12 06:26:11;;;;;;;14.03;9.30;;;9.30;99.90;;;;;;5032573;28;20233;-68
2022/10/12 06:28:37;;;;;;;11.20;9.10;;;9.30;99.90;;;;;;5032415;28;20183;-68
2022/10/12 06:31:03;;;;;;;8.77;7.93;;;9.20;99.90;;;;;;5023189;28;20196;-68
2022/10/12 06:33:29;;;;;;;31.60;12.07;;;9.20;99.90;;;;;;5034549;28;20183;-68
2022/10/12 06:35:55;;;;;;;14.40;9.80;;;9.20;99.90;;;;;;5034719;28;20422;-68
2022/10/12 06:38:22;;;;;;;47.77;11.17;;;9.30;99.90;;;;;;5034399;28;20885;-68
2022/10/12 06:40:47;;;;;;;33.00;11.73;;;9.20;99.90;;;;;;5034556;28;20417;-68
2022/10/12 06:43:13;;;;;;;32.17;12.37;;;9.20;99.90;;;;;;5034049;28;20464;-68
2022/10/12 06:45:39;;;;;;;25.00;10.70;;;9.10;99.90;;;;;;5034381;28;20179;-68
2022/10/12 06:48:06;;;;;;;16.23;11.07;;;9.20;99.90;;;;;;5034276;28;20185;-73
2022/10/12 06:50:32;;;;;;;16.07;9.40;;;9.10;99.90;;;;;;5032658;28;20772;-68
2022/10/12 06:52:58;;;;;;;12.80;8.43;;;9.10;99.90;;;;;;5032556;28;20422;-68
2022/10/12 06:55:24;;;;;;;15.97;8.17;;;9.10;99.90;;;;;;5026145;28;20429;-68
2022/10/12 06:57:49;;;;;;;14.80;9.70;;;9.00;99.90;;;;;;5034709;28;20202;-68
2022/10/12 07:00:15;;;;;;;12.03;8.93;;;9.00;99.90;;;;;;5032993;28;20441;-68
2022/10/12 07:02:41;;;;;;;13.80;8.70;;;9.10;99.90;;;;;;5030088;28;20285;-68
2022/10/12 07:05:07;;;;;;;12.27;9.20;;;9.00;99.90;;;;;;5013865;28;20414;-70
2022/10/12 07:07:35;;;;;;;10.90;9.13;;;9.00;99.90;;;;;;4998359;28;20258;-68
2022/10/12 07:10:03;;;;;;;12.00;9.17;;;9.00;99.90;;;;;;5002065;28;20422;-69
2022/10/12 07:12:28;;;;;;;11.80;9.93;;;9.10;99.90;;;;;;5013414;28;20827;-68
2022/10/12 07:14:54;;;;;;;13.90;10.20;;;9.10;99.90;;;;;;5014159;28;20501;-68
2022/10/12 07:17:20;;;;;;;9.77;8.77;;;9.20;99.90;;;;;;5012505;28;20210;-69
2022/10/12 07:19:46;;;;;;;11.20;8.80;;;9.20;99.90;;;;;;5012902;28;20191;-69
2022/10/12 07:22:11;;;;;;;16.20;9.10;;;9.30;99.90;;;;;;5011663;28;21282;-69
2022/10/12 07:24:37;;;;;;;13.40;9.40;;;9.30;99.90;;;;;;4995194;28;20534;-69
2022/10/12 07:27:06;;;;;;;12.03;9.60;;;9.40;99.90;;;;;;5007210;28;20254;-69
2022/10/12 07:29:33;;;;;;;10.40;9.07;;;9.40;99.90;;;;;;5004189;28;20187;-69
2022/10/12 07:31:59;;;;;;;13.93;7.97;;;9.50;99.90;;;;;;5013378;28;20430;-69
2022/10/12 07:34:26;;;;;;;9.83;8.23;;;9.40;99.90;;;;;;5011968;28;20433;-69
2022/10/12 07:36:52;;;;;;;11.63;8.10;;;9.50;99.90;;;;;;5011995;28;20434;-69
2022/10/12 07:39:18;;;;;;;16.90;8.80;;;9.60;99.90;;;;;;4995591;28;20438;-68
2022/10/12 07:41:44;;;;;;;11.27;9.40;;;9.60;99.90;;;;;;5013486;28;20710;-68
2022/10/12 07:44:10;;;;;;;13.10;9.50;;;9.70;99.90;;;;;;5011886;28;20471;-69
2022/10/12 07:46:36;;;;;;;14.43;9.50;;;9.80;99.90;;;;;;4929894;28;20230;-68
2022/10/12 07:49:02;;;;;;;13.53;9.67;;;9.90;99.90;;;;;;5013662;28;20456;-68
2022/10/12 07:51:28;;;;;;;15.77;10.70;;;9.90;99.90;;;;;;5013032;28;20180;-68
2022/10/12 07:53:54;;;;;;;13.40;10.07;;;9.90;99.90;;;;;;5011391;28;20425;-70
2022/10/12 07:56:19;;;;;;;17.93;10.90;;;10.00;99.90;;;;;;5000548;28;20927;-68
2022/10/12 07:58:50;;;;;;;15.90;10.87;;;10.20;99.90;;;;;;5008980;28;20622;-68
2022/10/12 08:01:18;;;;;;;13.30;9.83;;;10.10;99.90;;;;;;5012454;28;20666;-69
2022/10/12 08:03:43;;;;;;;18.43;10.30;;;10.20;99.90;;;;;;5012737;28;20546;-68
2022/10/12 08:06:15;;;;;;;15.23;10.40;;;10.30;99.90;;;;;;5018303;28;21022;-68
2022/10/12 08:08:42;;;;;;;12.90;9.30;;;10.30;99.90;;;;;;5033180;28;20911;-68
2022/10/12 08:11:08;;;;;;;14.60;10.17;;;10.40;99.90;;;;;;5030081;28;20978;-68
2022/10/12 08:13:34;;;;;;;16.80;10.10;;;10.50;99.90;;;;;;5010403;28;20434;-68
2022/10/12 08:16:01;;;;;;;13.90;9.67;;;10.60;99.90;;;;;;5014336;28;20441;-68
2022/10/12 08:18:27;;;;;;;15.97;10.10;;;10.70;99.90;;;;;;5021290;28;20433;-68
2022/10/12 08:20:53;;;;;;;18.47;10.37;;;10.70;99.90;;;;;;5031105;28;20436;-68
2022/10/12 08:23:18;;;;;;;15.60;10.53;;;10.80;99.90;;;;;;5031910;28;20199;-68
2022/10/12 08:25:55;;;;;;;13.20;9.70;;;10.90;99.90;;;;;;5030509;28;20185;-68
2022/10/12 08:28:21;;;;;;;12.07;10.00;;;11.00;99.90;;;;;;5031423;28;20162;-68
2022/10/12 08:30:47;;;;;;;11.90;8.90;;;11.10;99.90;;;;;;5032859;28;20451;-68
2022/10/12 08:33:13;;;;;;;10.57;8.50;;;11.10;99.90;;;;;;5032208;28;20413;-69
2022/10/12 08:35:40;;;;;;;12.00;9.30;;;11.20;99.90;;;;;;5032782;28;20405;-68
2022/10/12 08:38:06;;;;;;;10.93;9.83;;;11.30;99.90;;;;;;5032753;28;20810;-68
2022/10/12 08:40:40;;;;;;;15.70;9.37;;;11.40;99.90;;;;;;5030876;28;20415;-68
2022/10/12 08:43:36;;;;;;;12.30;9.20;;;11.60;99.90;;;;;;5032673;28;20480;-68
2022/10/12 08:46:04;;;;;;;11.20;9.00;;;11.80;99.90;;;;;;5032866;28;20423;-69
2022/10/12 08:48:37;;;;;;;9.20;8.17;;;11.80;99.90;;;;;;5031880;28;20471;-68
2022/10/12 08:51:09;;;;;;;11.63;8.20;;;12.00;99.90;;;;;;5032497;28;20427;-68
2022/10/12 08:53:58;;;;;;;8.63;7.37;;;12.10;99.90;;;;;;5030076;28;20835;-69
2022/10/12 08:56:24;;;;;;;11.50;7.60;;;12.20;99.90;;;;;;5025728;28;20503;-68
2022/10/12 08:58:52;;;;;;;14.13;7.50;;;12.40;99.90;;;;;;5027855;28;20428;-68
2022/10/12 09:01:37;;;;;;;17.67;7.97;;;12.50;99.90;;;;;;5014539;28;20895;-68
2022/10/12 09:04:33;;;;;;;13.33;8.33;;;12.60;99.90;;;;;;5032362;28;20448;-68
2022/10/12 09:07:10;;;;;;;9.57;8.67;;;12.80;99.90;;;;;;5032172;28;20529;-68
2022/10/12 09:09:45;;;;;;;8.83;7.93;;;12.90;99.90;;;;;;5031808;28;20394;-68
2022/10/12 09:12:26;;;;;;;13.33;8.30;;;13.00;99.90;;;;;;5032298;28;20426;-68
2022/10/12 09:14:59;;;;;;;10.07;8.57;;;13.20;99.90;;;;;;5032565;28;20501;-68
2022/10/12 09:17:31;;;;;;;7.80;6.97;;;13.40;99.90;;;;;;5034500;28;20404;-68
2022/10/12 09:20:05;;;;;;;8.13;7.33;;;13.60;99.90;;;;;;5036253;28;20419;-68
2022/10/12 09:22:33;;;;;;;10.87;7.37;;;13.80;99.90;;;;;;5028572;28;20431;-68
2022/10/12 09:25:01;;;;;;;8.63;7.77;;;13.90;99.90;;;;;;5035016;28;20467;-68
2022/10/12 09:27:30;;;;;;;12.43;8.57;;;14.10;99.50;;;;;;5035436;28;20416;-68
2022/10/12 09:29:59;;;;;;;9.13;7.77;;;14.30;99.20;;;;;;5036009;28;20463;-68
2022/10/12 09:32:46;;;;;;;8.50;7.70;;;14.60;99.90;;;;;;5035363;28;20402;-68
2022/10/12 09:35:12;;;;;;;9.40;7.40;;;14.80;99.70;;;;;;5035335;28;20420;-68
2022/10/12 09:37:38;;;;;;;8.00;7.20;;;15.00;97.80;;;;;;5034990;28;21011;-68
2022/10/12 09:40:05;;;;;;;7.37;6.67;;;15.20;97.80;;;;;;5035887;28;20507;-68
2022/10/12 09:42:32;;;;;;;11.60;7.03;;;15.50;96.40;;;;;;5035306;28;20498;-68
2022/10/12 09:45:10;;;;;;;7.90;7.10;;;15.60;95.80;;;;;;5035639;28;20450;-68
2022/10/12 09:47:36;;;;;;;7.63;6.93;;;15.70;95.10;;;;;;5035454;28;20407;-68
2022/10/12 09:50:05;;;;;;;7.83;6.77;;;15.70;95.20;;;;;;5033414;28;20408;-68
2022/10/12 09:52:41;;;;;;;8.80;7.13;;;15.80;96.50;;;;;;5035394;28;20173;-68
2022/10/12 09:55:10;;;;;;;7.53;6.43;;;15.80;97.20;;;;;;5035605;28;20392;-68
2022/10/12 09:57:40;;;;;;;11.57;7.10;;;16.00;95.40;;;;;;5034669;28;20415;-68
2022/10/12 10:00:26;;;;;;;15.83;7.73;;;15.90;95.60;;;;;;5035209;28;20412;-68
2022/10/12 10:02:53;;;;;;;9.77;6.30;;;15.90;94.40;;;;;;5035102;28;20741;-68
2022/10/12 10:05:33;;;;;;;6.50;5.50;;;15.90;94.10;;;;;;5034814;28;20412;-69
2022/10/12 10:08:18;;;;;;;6.83;5.77;;;16.00;94.00;;;;;;5035267;28;20563;-68
2022/10/12 10:10:56;;;;;;;6.70;6.10;;;16.10;94.20;;;;;;5035527;28;20452;-68
2022/10/12 10:13:27;;;;;;;9.20;6.20;;;16.40;94.30;;;;;;5034738;28;20891;-68
2022/10/12 10:16:23;;;;;;;9.37;6.13;;;16.60;93.20;;;;;;5033503;28;20476;-68
2022/10/12 10:19:00;;;;;;;7.03;5.30;;;16.90;93.50;;;;;;5022645;28;20428;-68
2022/10/12 10:21:36;;;;;;;6.00;5.20;;;16.90;93.70;;;;;;5034580;28;20495;-68
2022/10/12 10:24:05;;;;;;;7.60;5.87;;;17.00;93.80;;;;;;5035059;28;20475;-68
2022/10/12 10:26:51;;;;;;;7.53;5.80;;;17.10;92.30;;;;;;5034372;28;20421;-68
2022/10/12 10:29:37;;;;;;;6.00;4.77;;;17.50;92.40;;;;;;5033817;28;20412;-68
2022/10/12 10:32:28;;;;;;;6.77;5.77;;;17.90;92.80;;;;;;5034639;28;20852;-68
2022/10/12 10:35:12;;;;;;;7.20;5.10;;;18.30;90.90;;;;;;5034940;28;20413;-69
2022/10/12 10:37:44;;;;;;;6.60;5.30;;;18.90;90.60;;;;;;5034211;28;20544;-69
2022/10/12 10:40:37;;;;;;;6.17;5.67;;;19.30;90.20;;;;;;5034821;28;20406;-68
2022/10/12 10:43:08;;;;;;;11.37;4.73;;;19.80;85.70;;;;;;5032058;28;20473;-68
2022/10/12 10:45:53;;;;;;;8.97;4.53;;;20.10;79.90;;;;;;5033356;28;20443;-69
2022/10/12 10:48:28;;;;;;;4.50;4.10;;;20.30;79.90;;;;;;5034690;28;20409;-68
2022/10/12 10:51:00;;;;;;;8.13;4.70;;;20.30;79.60;;;;;;5034552;28;20409;-68
2022/10/12 10:53:41;;;;;;;6.77;4.40;;;20.40;77.90;;;;;;5033340;28;20429;-68
2022/10/12 10:56:16;;;;;;;5.90;4.80;;;20.60;77.20;;;;;;5034202;28;20917;-68
2022/10/12 10:58:41;;;;;;;5.70;4.83;;;20.70;77.60;;;;;;5033832;28;20460;-68
2022/10/12 11:01:34;;;;;;;9.93;5.40;;;20.60;76.70;;;;;;5034318;28;20409;-68
2022/10/12 11:04:04;;;;;;;7.80;4.40;;;20.60;76.40;;;;;;5034016;28;20229;-68
2022/10/12 11:06:38;;;;;;;4.93;4.40;;;20.30;74.20;;;;;;5033719;28;20457;-68
2022/10/12 11:09:12;;;;;;;5.03;4.07;;;20.30;72.10;;;;;;5034244;28;20406;-69
2022/10/12 11:11:39;;;;;;;7.53;5.40;;;20.30;77.50;;;;;;5033269;28;20942;-68
2022/10/12 11:14:15;;;;;;;4.97;4.37;;;20.40;76.40;;;;;;5034049;28;20410;-68
2022/10/12 11:17:18;;;;;;;5.23;4.27;;;20.60;78.30;;;;;;5033144;28;20675;-68
2022/10/12 11:20:08;;;;;;;8.23;5.00;;;20.80;76.90;;;;;;5002090;28;20447;-68
2022/10/12 11:22:49;;;;;;;5.03;4.60;;;21.00;76.60;;;;;;5033341;28;20735;-68
2022/10/12 11:25:24;;;;;;;5.67;4.97;;;21.00;77.50;;;;;;5033338;28;20472;-68
2022/10/12 11:27:50;;;;;;;6.40;4.30;;;21.00;75.70;;;;;;5034014;28;20550;-68
2022/10/12 11:30:23;;;;;;;6.10;4.53;;;20.90;74.60;;;;;;5033797;28;20409;-69
2022/10/12 11:33:05;;;;;;;9.90;4.20;;;20.80;76.40;;;;;;5033922;28;20467;-68
2022/10/12 11:35:35;;;;;;;5.00;4.37;;;20.80;74.80;;;;;;5033291;28;20407;-68
2022/10/12 11:38:08;;;;;;;4.83;3.77;;;20.80;73.70;;;;;;5033463;28;20409;-68
2022/10/12 11:40:45;;;;;;;11.30;4.70;;;20.80;72.40;;;;;;5032733;28;20452;-67
2022/10/12 11:43:20;;;;;;;3.53;3.23;;;20.60;67.10;;;;;;5033671;28;20449;-67
2022/10/12 11:45:49;;;;;;;4.00;2.93;;;20.50;72.40;;;;;;5032749;28;20421;-67
2022/10/12 11:48:42;;;;;;;5.10;3.10;;;20.40;73.80;;;;;;5033546;28;20444;-67
2022/10/12 11:51:09;;;;;;;3.23;2.80;;;20.60;72.80;;;;;;5033564;28;20405;-67
2022/10/12 11:53:51;;;;;;;4.90;3.40;;;20.80;73.20;;;;;;5030242;28;20520;-67
2022/10/12 11:56:20;;;;;;;4.80;3.20;;;20.90;72.60;;;;;;5033475;28;20935;-67
2022/10/12 11:58:51;;;;;;;4.60;3.20;;;20.80;71.90;;;;;;5032649;28;20417;-67
2022/10/12 12:01:50;;;;;;;3.83;2.77;;;20.80;72.20;;;;;;5033315;28;20726;-68
2022/10/12 12:04:25;;;;;;;3.40;3.10;;;20.60;72.50;;;;;;5033308;28;20448;-67
2022/10/12 12:07:01;;;;;;;5.90;4.70;;;20.60;74.30;;;;;;5032871;28;20897;-67
2022/10/12 12:09:42;;;;;;;3.40;3.10;;;20.50;73.90;;;;;;5032598;28;20420;-67
2022/10/12 12:12:24;;;;;;;6.27;4.00;;;20.40;74.70;;;;;;5032830;28;20903;-67
2022/10/12 12:14:52;;;;;;;4.27;3.87;;;20.20;74.30;;;;;;5030442;28;20440;-68
2022/10/12 12:17:18;;;;;;;5.90;3.63;;;20.10;74.60;;;;;;5033043;28;20417;-67
2022/10/12 12:19:47;;;;;;;4.30;3.70;;;20.00;78.00;;;;;;5014839;28;20440;-67
2022/10/12 12:22:43;;;;;;;4.20;3.33;;;19.90;76.60;;;;;;5032784;28;20174;-67
2022/10/12 12:25:09;;;;;;;5.97;3.40;;;19.70;76.60;;;;;;5032858;28;20445;-67
2022/10/12 12:27:47;;;;;;;9.30;4.37;;;19.50;78.90;;;;;;5014636;28;20409;-67
2022/10/12 12:30:20;;;;;;;3.60;3.30;;;19.30;78.10;;;;;;5032823;28;20417;-69
2022/10/12 12:32:55;;;;;;;7.30;5.43;;;19.20;79.70;;;;;;5030708;28;20722;-67
2022/10/12 12:35:21;;;;;;;4.27;3.97;;;19.20;82.60;;;;;;5031688;28;20432;-67
2022/10/12 12:37:48;;;;;;;6.10;5.70;;;19.20;82.90;;;;;;5029810;28;20579;-67
2022/10/12 12:40:21;;;;;;;4.93;4.53;;;19.20;83.10;;;;;;5032687;28;20179;-67
2022/10/12 12:42:47;;;;;;;10.60;4.70;;;19.20;82.70;;;;;;5031784;28;20409;-67
2022/10/12 12:45:31;;;;;;;5.33;4.80;;;19.10;81.40;;;;;;5032609;28;20444;-67
2022/10/12 12:47:57;;;;;;;5.60;3.93;;;19.10;83.10;;;;;;5032533;28;20420;-67
2022/10/12 12:50:37;;;;;;;5.93;4.33;;;19.10;82.90;;;;;;5032182;28;20413;-67
2022/10/12 12:53:16;;;;;;;4.53;3.40;;;19.10;83.20;;;;;;5032498;28;20408;-69
2022/10/12 12:55:46;;;;;;;8.57;3.40;;;18.80;82.90;;;;;;5032022;28;20405;-67
2022/10/12 12:58:41;;;;;;;4.13;3.73;;;18.90;84.40;;;;;;5030477;28;20413;-67
2022/10/12 13:01:13;;;;;;;4.50;4.03;;;18.90;84.70;;;;;;5021784;28;20483;-67
2022/10/12 13:04:03;;;;;;;5.10;3.60;;;18.90;83.90;;;;;;5031859;28;20877;-68
2022/10/12 13:07:01;;;;;;;6.30;4.00;;;18.90;84.20;;;;;;5031756;28;20531;-69